Time,TemperatureF,DewpointF,PressureIn,WindDirection,WindDirectionDegrees,WindSpeedMPH,WindSpeedGustMPH,Humidity,HourlyPrecipIn,Conditions,Clouds,dailyrainin,SoftwareType,DateUTC
2013-05-13 12:43:00,53.0,28.0,-100.00,WSW,258,7.0,17.0,38,0.00,,,-99.99,,2013-05-13 16:43:00,
2013-05-13 12:53:00,55.0,27.0,-100.00,West,274,9.0,17.0,35,0.00,,,-99.99,,2013-05-13 16:53:00,
2013-05-13 13:02:00,54.0,27.0,-100.00,WNW,284,6.0,13.0,35,0.00,,,-99.99,,2013-05-13 17:02:00,
2013-05-13 13:12:00,56.0,26.0,-100.00,West,264,8.0,17.0,32,0.00,,,-99.99,,2013-05-13 17:12:00,
2013-05-13 13:21:00,55.0,26.0,-100.00,WSW,254,7.0,17.0,33,0.00,,,-99.99,,2013-05-13 17:21:00,
2013-05-13 13:32:00,54.0,26.0,-100.00,West,263,8.0,20.0,33,0.00,,,-99.99,,2013-05-13 17:32:00,
2013-05-13 13:42:00,56.0,27.0,-100.00,WSW,251,7.0,17.0,32,0.00,,,-99.99,,2013-05-13 17:42:00,
2013-05-13 13:54:00,55.0,26.0,-100.00,SW,229,11.0,17.0,32,0.00,,,-99.99,,2013-05-13 17:54:00,
2013-05-13 14:03:00,55.0,26.0,-100.00,WNW,285,7.0,16.0,33,-99.99,,,-99.99,,2013-05-13 18:03:00,
2013-05-13 14:13:00,56.0,28.0,-100.00,WSW,239,9.0,18.0,34,0.00,,,-99.99,,2013-05-13 18:13:00,
2013-05-13 14:23:00,-999.0,-99.9,-100.00,WSW,254,7.0,14.0,-999,-99.99,,,-99.99,,2013-05-13 18:23:00,
2013-05-13 14:32:00,54.0,27.0,-100.00,WNW,288,7.0,15.0,35,0.00,,,-99.99,,2013-05-13 18:32:00,
2013-05-13 14:43:00,-999.0,-99.9,-100.00,WNW,284,7.0,16.0,-999,-99.99,,,-99.99,,2013-05-13 18:43:00,
2013-05-13 14:51:00,57.0,25.0,-100.00,SW,227,6.0,17.0,29,0.00,,,-99.99,,2013-05-13 18:51:00,
2013-05-13 15:01:00,57.0,24.0,-100.00,SW,219,9.0,21.0,28,0.00,,,-99.99,,2013-05-13 19:01:00,
2013-05-13 15:11:00,57.0,26.0,-100.00,WSW,253,8.0,20.0,30,-99.99,,,-99.99,,2013-05-13 19:11:00,
2013-05-13 15:22:00,-999.0,-99.9,-100.00,WSW,241,6.0,12.0,-999,-99.99,,,-99.99,,2013-05-13 19:22:00,
2013-05-13 15:32:00,58.0,26.0,-100.00,WSW,246,8.0,16.0,29,0.00,,,-99.99,,2013-05-13 19:32:00,
2013-05-13 15:44:00,57.0,25.0,-100.00,WSW,251,9.0,19.0,29,0.00,,,-99.99,,2013-05-13 19:44:00,
2013-05-13 15:53:00,57.0,24.0,-100.00,SW,226,9.0,18.0,28,0.00,,,-99.99,,2013-05-13 19:53:00,
2013-05-13 16:02:00,56.0,27.0,-100.00,West,281,8.0,15.0,33,0.00,,,-99.99,,2013-05-13 20:02:00,
2013-05-13 16:11:00,55.0,26.0,-100.00,WNW,296,7.0,12.0,33,0.00,,,-99.99,,2013-05-13 20:11:00,
2013-05-13 16:23:00,56.0,26.0,-100.00,West,271,7.0,16.0,30,0.00,,,-99.99,,2013-05-13 20:23:00,
2013-05-13 16:33:00,57.0,27.0,-100.00,West,260,7.0,14.0,30,0.00,,,-99.99,,2013-05-13 20:33:00,
2013-05-13 16:44:00,57.0,26.0,-100.00,West,261,7.0,18.0,30,0.00,,,-99.99,,2013-05-13 20:44:00,
2013-05-13 16:53:00,-999.0,-99.9,-100.00,West,275,6.0,12.0,-999,-99.99,,,-99.99,,2013-05-13 20:53:00,
2013-05-13 17:03:00,-999.0,-99.9,-100.00,West,271,7.0,16.0,-999,-99.99,,,-99.99,,2013-05-13 21:03:00,
2013-05-13 17:14:00,56.0,25.0,-100.00,West,275,9.0,15.0,30,0.00,,,-99.99,,2013-05-13 21:14:00,
2013-05-13 17:23:00,56.0,25.0,-100.00,West,270,7.0,14.0,30,0.00,,,-99.99,,2013-05-13 21:23:00,
2013-05-13 17:33:00,54.0,26.0,-100.00,WNW,295,9.0,15.0,33,0.00,,,-99.99,,2013-05-13 21:33:00,
2013-05-13 17:44:00,-999.0,-99.9,-100.00,West,281,8.0,15.0,-999,-99.99,,,-99.99,,2013-05-13 21:44:00,
2013-05-13 17:53:00,55.0,26.0,-100.00,West,272,6.0,14.0,32,0.00,,,-99.99,,2013-05-13 21:53:00,
2013-05-13 18:02:00,54.0,29.0,-100.00,WNW,291,6.0,11.0,37,0.00,,,-99.99,,2013-05-13 22:02:00,
2013-05-13 18:12:00,-999.0,-99.9,-100.00,West,270,7.0,16.0,-999,-99.99,,,-99.99,,2013-05-13 22:12:00,
2013-05-13 18:23:00,54.0,26.0,-100.00,WNW,288,8.0,16.0,33,0.00,,,-99.99,,2013-05-13 22:23:00,
2013-05-13 18:32:00,-999.0,-99.9,-100.00,WNW,292,7.0,12.0,-999,-99.99,,,-99.99,,2013-05-13 22:32:00,
2013-05-13 18:43:00,-999.0,-99.9,-100.00,West,268,7.0,15.0,-999,-99.99,,,-99.99,,2013-05-13 22:43:00,
2013-05-13 18:52:00,54.0,26.0,-100.00,West,270,6.0,11.0,33,0.00,,,-99.99,,2013-05-13 22:52:00,
2013-05-13 19:02:00,53.0,27.0,-100.00,WNW,298,9.0,14.0,37,0.00,,,-99.99,,2013-05-13 23:02:00,
2013-05-13 19:12:00,53.0,26.0,-100.00,WNW,289,4.0,10.0,35,0.00,,,-99.99,,2013-05-13 23:12:00,
2013-05-13 19:23:00,53.0,26.0,-100.00,West,281,4.0,7.0,35,0.00,,,-99.99,,2013-05-13 23:23:00,
2013-05-13 19:33:00,52.0,26.0,-100.00,West,275,5.0,11.0,36,0.00,,,-99.99,,2013-05-13 23:33:00,
2013-05-13 19:42:00,52.0,27.0,-100.00,West,277,6.0,12.0,37,0.00,,,-99.99,,2013-05-13 23:42:00,
2013-05-13 19:53:00,52.0,26.0,-100.00,WSW,246,4.0,9.0,36,0.00,,,-99.99,,2013-05-13 23:53:00,
2013-05-13 20:02:00,52.0,26.0,-100.00,WSW,240,4.0,7.0,36,0.00,,,-99.99,,2013-05-14 00:02:00,
2013-05-13 20:13:00,-999.0,-99.9,-100.00,SW,226,3.0,8.0,-999,-99.99,,,-99.99,,2013-05-14 00:13:00,
2013-05-13 20:22:00,51.0,27.0,-100.00,SW,219,3.0,6.0,38,0.00,,,-99.99,,2013-05-14 00:22:00,
2013-05-13 20:32:00,51.0,27.0,-100.00,SSW,212,2.0,7.0,39,0.00,,,-99.99,,2013-05-14 00:32:00,
2013-05-13 20:41:00,51.0,28.0,-100.00,SW,234,2.0,7.0,41,0.00,,,-99.99,,2013-05-14 00:41:00,
2013-05-13 20:51:00,51.0,28.0,-100.00,WSW,243,2.0,6.0,42,0.00,,,-99.99,,2013-05-14 00:51:00,
2013-05-13 21:02:00,51.0,30.0,-100.00,West,264,3.0,9.0,44,0.00,,,-99.99,,2013-05-14 01:02:00,
2013-05-13 21:11:00,51.0,29.0,-100.00,West,280,4.0,9.0,42,0.00,,,-99.99,,2013-05-14 01:11:00,
2013-05-13 21:21:00,51.0,31.0,-100.00,West,278,4.0,9.0,45,0.00,,,-99.99,,2013-05-14 01:21:00,
2013-05-13 21:32:00,51.0,30.0,-100.00,WNW,294,6.0,10.0,45,0.00,,,-99.99,,2013-05-14 01:32:00,
2013-05-13 21:43:00,51.0,31.0,-100.00,WNW,299,6.0,12.0,46,0.00,,,-99.99,,2013-05-14 01:43:00,
2013-05-13 21:53:00,50.0,30.0,-100.00,NW,304,9.0,12.0,45,0.00,,,-99.99,,2013-05-14 01:53:00,
2013-05-13 22:03:00,-999.0,-99.9,-100.00,WNW,299,9.0,13.0,-999,-99.99,,,-99.99,,2013-05-14 02:03:00,
2013-05-13 22:12:00,49.0,30.0,-100.00,WNW,301,9.0,13.0,47,0.00,,,-99.99,,2013-05-14 02:12:00,
2013-05-13 22:22:00,49.0,30.0,-100.00,WNW,301,9.0,13.0,48,0.00,,,-99.99,,2013-05-14 02:22:00,
2013-05-13 22:32:00,49.0,32.0,-100.00,NW,305,8.0,13.0,51,0.00,,,-99.99,,2013-05-14 02:32:00,
2013-05-13 22:42:00,49.0,30.0,-100.00,NW,306,7.0,12.0,48,0.00,,,-99.99,,2013-05-14 02:42:00,
2013-05-13 22:52:00,48.0,30.0,-100.00,NW,304,7.0,12.0,48,0.00,,,-99.99,,2013-05-14 02:52:00,
2013-05-13 23:01:00,48.0,30.0,-100.00,NW,304,8.0,12.0,50,0.00,,,-99.99,,2013-05-14 03:01:00,
2013-05-13 23:11:00,48.0,30.0,-100.00,NW,305,7.0,12.0,50,0.00,,,-99.99,,2013-05-14 03:11:00,
2013-05-13 23:21:00,47.0,31.0,-100.00,NW,304,6.0,10.0,52,0.00,,,-99.99,,2013-05-14 03:21:00,
2013-05-13 23:33:00,47.0,30.0,-100.00,NW,306,6.0,9.0,51,0.00,,,-99.99,,2013-05-14 03:33:00,
2013-05-13 23:42:00,47.0,31.0,-100.00,NW,304,7.0,11.0,53,0.00,,,-99.99,,2013-05-14 03:42:00,
2013-05-13 23:52:00,47.0,31.0,-100.00,NW,304,7.0,10.0,54,0.00,,,-99.99,,2013-05-14 03:52:00,